Time;durP1;ratioP1;P1;durP2;ratioP2;P2;SDS_P1;SDS_P2;PMS_P1;PMS_P2;Temp;Humidity;BMP_temperature;BMP_pressure;BME280_temperature;BME280_humidity;BME280_pressure;Samples;Min_cycle;Max_cycle;Signal;HPM_P1;HPM_P2
2022/03/23 00:01:19;;;;;;;24.38;13.82;;;7.30;99.90;;;;;;12427877;28;20088;-81
2022/03/23 00:07:22;;;;;;;24.75;14.20;;;7.30;99.90;;;;;;12429806;28;20096;-81
2022/03/23 00:13:24;;;;;;;24.05;13.32;;;7.00;99.90;;;;;;12428013;28;20520;-82
2022/03/23 00:19:26;;;;;;;27.05;14.43;;;7.10;99.90;;;;;;12429988;28;20054;-81
2022/03/23 00:25:28;;;;;;;22.60;13.45;;;7.10;99.90;;;;;;12427598;28;20140;-80
2022/03/23 00:31:30;;;;;;;20.10;13.20;;;7.00;99.90;;;;;;12430074;28;20160;-81
2022/03/23 00:37:33;;;;;;;24.80;13.45;;;6.90;99.90;;;;;;12433228;28;20133;-80
2022/03/23 00:43:35;;;;;;;21.38;14.10;;;6.80;99.90;;;;;;12432424;28;20046;-81
2022/03/23 00:49:37;;;;;;;24.20;13.63;;;7.00;99.90;;;;;;12433481;28;20421;-80
2022/03/23 00:55:41;;;;;;;21.92;13.70;;;6.90;99.90;;;;;;12465940;28;20052;-81
2022/03/23 01:01:45;;;;;;;21.30;13.52;;;6.90;99.90;;;;;;12448205;28;20064;-81
2022/03/23 01:07:47;;;;;;;;;;;6.80;99.90;;;;;;12425816;28;20066;-80
2022/03/23 01:13:49;;;;;;;24.27;13.60;;;6.80;99.90;;;;;;12430775;28;20394;-80
2022/03/23 01:19:51;;;;;;;25.38;13.35;;;6.90;99.90;;;;;;12424956;28;20432;-81
2022/03/23 01:25:53;;;;;;;23.67;13.20;;;6.50;99.90;;;;;;12422822;28;20132;-79
2022/03/23 01:31:55;;;;;;;21.35;13.35;;;6.70;99.90;;;;;;12428699;28;20433;-81
2022/03/23 01:37:57;;;;;;;21.63;13.57;;;6.40;99.90;;;;;;12423926;28;20136;-81
2022/03/23 01:43:59;;;;;;;21.10;13.35;;;6.20;99.90;;;;;;12426863;28;20074;-80
2022/03/23 01:50:04;;;;;;;21.08;12.98;;;6.20;99.90;;;;;;12435542;28;20058;-79
2022/03/23 01:56:07;;;;;;;21.90;14.07;;;6.20;99.90;;;;;;12423573;28;21310;-80
2022/03/23 02:02:10;;;;;;;22.35;13.30;;;6.10;99.90;;;;;;12438853;28;20049;-81
2022/03/23 02:08:12;;;;;;;20.98;13.65;;;6.00;99.90;;;;;;12437104;28;20054;-79
2022/03/23 02:14:16;;;;;;;25.55;12.55;;;6.00;99.90;;;;;;12436036;28;20073;-81
2022/03/23 02:20:19;;;;;;;20.58;12.90;;;5.90;99.90;;;;;;12438490;28;20099;-80
2022/03/23 02:26:22;;;;;;;23.63;14.45;;;5.80;99.90;;;;;;12438586;28;20087;-81
2022/03/23 02:32:25;;;;;;;23.75;13.85;;;5.90;99.90;;;;;;12460352;28;20181;-81
2022/03/23 02:38:29;;;;;;;19.70;13.52;;;5.80;99.90;;;;;;12433552;28;20060;-81
2022/03/23 02:44:32;;;;;;;;;;;5.80;99.90;;;;;;12428866;28;20046;-79
2022/03/23 02:50:34;;;;;;;25.38;13.85;;;5.70;99.90;;;;;;12427734;28;19941;-81
2022/03/23 03:03:02;;;;;;;27.30;13.95;;;5.40;99.90;;;;;;12430348;28;20137;-80
2022/03/23 03:09:05;;;;;;;25.83;14.90;;;5.30;99.90;;;;;;12431935;28;20498;-81
2022/03/23 03:15:07;;;;;;;25.17;14.98;;;5.40;99.90;;;;;;12424722;28;20169;-80
2022/03/23 03:21:10;;;;;;;22.23;14.02;;;5.30;99.90;;;;;;12429481;28;20099;-79
2022/03/23 03:27:12;;;;;;;24.23;13.63;;;5.40;99.90;;;;;;12424151;28;21023;-79
2022/03/23 03:33:14;;;;;;;20.88;12.57;;;5.30;99.90;;;;;;12426284;28;20053;-80
2022/03/23 03:39:16;;;;;;;23.35;13.60;;;5.20;99.90;;;;;;12426150;28;20104;-81
2022/03/23 03:45:17;;;;;;;23.20;13.60;;;5.20;99.90;;;;;;12428481;28;20530;-80
2022/03/23 03:51:19;;;;;;;20.60;13.43;;;5.20;99.90;;;;;;12440930;28;20153;-81
2022/03/23 03:57:21;;;;;;;23.85;13.48;;;5.20;99.90;;;;;;12435839;28;20112;-79
2022/03/23 04:03:23;;;;;;;22.52;13.15;;;5.30;99.90;;;;;;12420417;28;20050;-80
2022/03/23 04:09:25;;;;;;;24.85;13.43;;;5.10;99.90;;;;;;12429958;28;20042;-81
2022/03/23 04:15:27;;;;;;;22.70;13.75;;;5.20;99.90;;;;;;12432194;28;20045;-80
2022/03/23 04:21:29;;;;;;;26.40;14.90;;;5.10;99.90;;;;;;12433207;28;20064;-80
2022/03/23 04:27:31;;;;;;;21.10;13.30;;;4.80;99.90;;;;;;12430962;28;20068;-80
2022/03/23 04:33:33;;;;;;;24.92;15.00;;;4.70;99.90;;;;;;12433026;28;20045;-79
2022/03/23 04:39:35;;;;;;;21.10;13.13;;;4.60;99.90;;;;;;12428215;28;20057;-81
2022/03/23 04:45:37;;;;;;;20.38;13.55;;;4.70;99.90;;;;;;12428252;28;20148;-80
2022/03/23 04:51:39;;;;;;;20.25;13.00;;;4.60;99.90;;;;;;12427822;28;20107;-79
2022/03/23 04:57:42;;;;;;;22.10;13.60;;;4.50;99.90;;;;;;12426713;28;20050;-80
2022/03/23 05:03:44;;;;;;;25.63;14.93;;;4.70;99.90;;;;;;12430213;28;20045;-80
2022/03/23 05:09:46;;;;;;;27.08;16.27;;;4.70;99.90;;;;;;12430986;28;20049;-81
2022/03/23 05:15:48;;;;;;;25.70;15.43;;;4.40;99.90;;;;;;12426024;28;20042;-80
2022/03/23 05:21:50;;;;;;;24.13;14.77;;;4.10;99.90;;;;;;12440623;28;20052;-78
2022/03/23 05:27:52;;;;;;;26.48;15.15;;;3.90;99.90;;;;;;12424385;28;20556;-79
2022/03/23 05:33:54;;;;;;;26.52;15.13;;;3.70;99.90;;;;;;12423564;28;20095;-80
2022/03/23 05:39:56;;;;;;;23.70;15.25;;;3.30;99.90;;;;;;12427845;28;20054;-80
2022/03/23 05:45:58;;;;;;;28.42;16.75;;;3.10;99.90;;;;;;12421458;28;20136;-79
2022/03/23 05:52:00;;;;;;;30.38;16.48;;;3.40;99.90;;;;;;12433777;28;20052;-81
2022/03/23 05:58:03;;;;;;;25.13;16.52;;;3.60;99.90;;;;;;12426413;28;20045;-81
2022/03/23 06:04:05;;;;;;;27.43;16.30;;;3.80;99.90;;;;;;12435787;28;20053;-80
2022/03/23 06:10:07;;;;;;;24.60;15.30;;;4.00;99.90;;;;;;12419769;28;20061;-81
2022/03/23 06:16:11;;;;;;;29.15;15.35;;;4.10;99.90;;;;;;12426849;28;20092;-82
2022/03/23 06:22:13;;;;;;;28.17;15.60;;;4.00;99.90;;;;;;12420114;28;20153;-82
2022/03/23 06:28:18;;;;;;;25.48;15.27;;;4.30;99.90;;;;;;12426545;28;20045;-82
2022/03/23 06:34:21;;;;;;;27.15;15.90;;;4.80;99.90;;;;;;12426865;28;20049;-81
2022/03/23 06:40:23;;;;;;;27.60;15.73;;;5.20;99.90;;;;;;12423878;28;20084;-81
2022/03/23 06:46:25;;;;;;;28.42;14.77;;;5.60;99.90;;;;;;12434417;28;20072;-81
2022/03/23 06:52:27;;;;;;;33.55;15.50;;;5.80;99.90;;;;;;12436733;28;20458;-81
2022/03/23 06:58:30;;;;;;;25.77;15.50;;;6.00;99.90;;;;;;12445491;28;20481;-82
2022/03/23 07:04:32;;;;;;;27.63;15.40;;;6.20;99.90;;;;;;12459515;28;20046;-82
2022/03/23 07:10:36;;;;;;;25.42;17.48;;;6.50;99.90;;;;;;12442718;28;20154;-80
2022/03/23 07:16:38;;;;;;;36.58;20.23;;;6.60;99.90;;;;;;12435512;28;20046;-81
2022/03/23 07:22:40;;;;;;;27.15;17.05;;;6.50;99.90;;;;;;12416826;28;20510;-80
2022/03/23 07:28:42;;;;;;;26.42;16.33;;;6.60;99.90;;;;;;12434027;28;20059;-80
2022/03/23 07:34:44;;;;;;;28.85;17.40;;;6.50;99.90;;;;;;12427560;28;20113;-80
2022/03/23 07:40:46;;;;;;;27.88;18.98;;;6.60;99.90;;;;;;12426201;28;20416;-80
2022/03/23 07:46:48;;;;;;;29.55;17.20;;;6.70;99.90;;;;;;12428598;28;20708;-82
2022/03/23 07:52:50;;;;;;;28.42;18.55;;;6.90;99.90;;;;;;12433850;28;20555;-80
2022/03/23 07:58:52;;;;;;;25.52;17.75;;;7.20;99.90;;;;;;12429938;28;20041;-82
2022/03/23 08:04:54;;;;;;;30.50;19.33;;;7.40;99.90;;;;;;12431208;28;20141;-80
2022/03/23 08:10:56;;;;;;;30.80;18.55;;;7.50;99.90;;;;;;12428136;28;20073;-81
2022/03/23 08:16:58;;;;;;;26.48;18.25;;;7.70;99.90;;;;;;12437429;28;20046;-82
2022/03/23 08:23:02;;;;;;;28.63;17.58;;;8.00;99.90;;;;;;12432784;28;20056;-82
2022/03/23 08:29:04;;;;;;;28.47;18.83;;;8.30;99.90;;;;;;12450278;28;20062;-81
2022/03/23 08:35:06;;;;;;;31.17;18.52;;;8.60;99.90;;;;;;12447016;28;20098;-80
2022/03/23 08:41:08;;;;;;;29.85;19.17;;;8.80;99.90;;;;;;12445329;28;20813;-81
2022/03/23 08:47:12;;;;;;;37.33;18.27;;;9.00;99.90;;;;;;12427779;28;20095;-81
2022/03/23 08:53:14;;;;;;;26.48;16.42;;;9.30;99.90;;;;;;12427085;28;20605;-83
2022/03/23 08:59:16;;;;;;;24.70;15.55;;;9.60;99.90;;;;;;12412625;28;20137;-81
2022/03/23 09:05:19;;;;;;;20.08;14.55;;;9.90;99.90;;;;;;12425118;28;20103;-81
2022/03/23 09:11:22;;;;;;;24.50;17.20;;;10.20;99.90;;;;;;12419187;28;20046;-82
2022/03/23 09:17:24;;;;;;;25.27;14.60;;;10.50;99.90;;;;;;12426986;28;20068;-81
2022/03/23 09:23:26;;;;;;;21.58;14.57;;;10.80;99.90;;;;;;12427420;28;20095;-81
2022/03/23 09:29:28;;;;;;;24.90;14.88;;;11.10;99.90;;;;;;12440065;28;20858;-83
2022/03/23 09:35:30;;;;;;;25.10;14.73;;;11.50;99.90;;;;;;12428240;28;20054;-81
2022/03/23 09:41:33;;;;;;;21.85;14.85;;;11.80;99.90;;;;;;12433980;28;20076;-81
2022/03/23 09:47:37;;;;;;;18.35;12.75;;;12.10;99.90;;;;;;12454321;28;20113;-81
2022/03/23 09:53:40;;;;;;;19.52;14.25;;;12.60;99.90;;;;;;12455026;28;20073;-81
2022/03/23 09:59:42;;;;;;;17.92;13.50;;;13.10;99.90;;;;;;12448709;28;20184;-82
2022/03/23 10:06:25;;;;;;;18.13;13.07;;;13.60;99.90;;;;;;12427428;28;20104;-81
2022/03/23 10:13:04;;;;;;;26.88;13.73;;;13.80;99.90;;;;;;12424869;28;20799;-81
2022/03/23 10:19:06;;;;;;;21.35;12.75;;;13.90;99.90;;;;;;12418563;28;20064;-81
2022/03/23 10:25:09;;;;;;;20.33;12.85;;;14.20;99.90;;;;;;12423097;28;20049;-81
2022/03/23 10:31:16;;;;;;;21.92;12.75;;;14.70;99.90;;;;;;12432758;28;20046;-83
2022/03/23 10:37:30;;;;;;;16.65;12.50;;;15.10;99.90;;;;;;12427915;28;20043;-81
2022/03/23 10:43:38;;;;;;;21.35;12.63;;;15.50;99.90;;;;;;12431735;28;20084;-83
2022/03/23 10:49:41;;;;;;;14.70;11.60;;;15.70;99.90;;;;;;12432354;28;20050;-83
2022/03/23 10:55:49;;;;;;;15.32;11.80;;;15.90;99.90;;;;;;12434816;28;20136;-83
2022/03/23 11:02:08;;;;;;;18.30;12.57;;;15.90;99.90;;;;;;12431729;28;20056;-83
2022/03/23 11:08:22;;;;;;;15.90;12.23;;;16.30;99.90;;;;;;12437731;28;20092;-81
2022/03/23 11:20:53;;;;;;;17.40;12.82;;;16.70;99.90;;;;;;12461399;28;21104;-82
2022/03/23 11:26:56;;;;;;;18.48;12.38;;;16.70;99.90;;;;;;12432989;28;20517;-83
2022/03/23 11:32:58;;;;;;;14.00;12.13;;;17.00;99.90;;;;;;12427541;28;20588;-83
2022/03/23 11:39:04;;;;;;;15.07;12.40;;;17.40;99.90;;;;;;12426514;28;20903;-82
2022/03/23 11:45:07;;;;;;;19.17;12.88;;;17.60;99.90;;;;;;12428934;28;20053;-82
2022/03/23 11:51:40;;;;;;;18.57;13.97;;;17.60;99.90;;;;;;12425053;28;20556;-81
2022/03/23 11:57:54;;;;;;;17.83;13.20;;;17.50;99.90;;;;;;12423489;28;20052;-83
2022/03/23 12:04:04;;;;;;;15.65;13.35;;;17.90;99.90;;;;;;12427016;28;20168;-82
2022/03/23 12:10:20;;;;;;;18.05;13.93;;;18.00;99.90;;;;;;12423963;28;20497;-83
2022/03/23 12:16:51;;;;;;;20.00;13.63;;;18.20;99.90;;;;;;12427814;28;20632;-83
2022/03/23 12:23:36;;;;;;;18.30;13.90;;;18.10;99.90;;;;;;12436025;28;20061;-84
2022/03/23 12:29:43;;;;;;;19.48;13.88;;;18.00;99.90;;;;;;12428793;28;20077;-82
2022/03/23 12:35:50;;;;;;;17.10;13.00;;;18.40;99.90;;;;;;12434428;28;20033;-82
2022/03/23 12:41:52;;;;;;;17.70;12.43;;;18.70;99.90;;;;;;12426342;28;20057;-82
2022/03/23 12:47:58;;;;;;;20.75;14.73;;;18.60;99.90;;;;;;12432489;28;20573;-82
2022/03/23 13:00:47;;;;;;;15.75;12.38;;;18.60;99.90;;;;;;12390216;28;20054;-82
2022/03/23 13:06:49;;;;;;;19.35;14.10;;;18.70;99.90;;;;;;12430437;28;20297;-84
2022/03/23 13:13:04;;;;;;;17.52;13.43;;;18.80;99.90;;;;;;12432235;28;20053;-82
2022/03/23 13:19:08;;;;;;;21.25;14.60;;;19.20;99.90;;;;;;12428300;28;20103;-84
2022/03/23 13:25:17;;;;;;;19.63;14.00;;;18.80;99.90;;;;;;12431679;28;20581;-84
2022/03/23 13:31:25;;;;;;;20.58;14.75;;;18.60;99.90;;;;;;12426991;28;20041;-84
2022/03/23 13:37:26;;;;;;;21.52;14.43;;;18.40;99.90;;;;;;12447311;28;20160;-84
2022/03/23 13:43:32;;;;;;;19.42;14.20;;;18.30;99.90;;;;;;12439753;28;20057;-83
2022/03/23 13:49:42;;;;;;;20.08;13.85;;;18.20;99.90;;;;;;12439286;28;20057;-82
2022/03/23 13:55:49;;;;;;;19.63;14.65;;;18.30;99.90;;;;;;12456164;28;20049;-82
2022/03/23 14:01:53;;;;;;;19.25;13.70;;;18.10;99.90;;;;;;12443490;28;20079;-81
2022/03/23 14:07:57;;;;;;;20.10;15.38;;;18.10;99.90;;;;;;12433884;28;20053;-84
2022/03/23 14:13:59;;;;;;;22.75;14.77;;;18.00;99.90;;;;;;12434091;28;20053;-81
2022/03/23 14:20:04;;;;;;;22.90;15.07;;;17.80;99.90;;;;;;12437723;28;20332;-81
2022/03/23 14:26:26;;;;;;;21.15;15.00;;;17.80;99.90;;;;;;12431099;28;20054;-84
2022/03/23 14:32:52;;;;;;;21.95;15.90;;;17.60;99.90;;;;;;12436765;28;20041;-84
2022/03/23 14:38:57;;;;;;;23.58;15.38;;;17.60;99.90;;;;;;12436410;28;20052;-81
2022/03/23 14:45:01;;;;;;;23.60;16.17;;;17.60;99.90;;;;;;12432447;28;20663;-82
2022/03/23 14:51:03;;;;;;;23.45;15.80;;;17.50;99.90;;;;;;12434849;28;20053;-81
2022/03/23 14:57:12;;;;;;;21.63;15.63;;;17.40;99.90;;;;;;12434637;28;20110;-81
2022/03/23 15:03:14;;;;;;;23.25;16.38;;;17.50;99.90;;;;;;12427699;28;20046;-84
2022/03/23 15:15:45;;;;;;;20.83;15.93;;;17.60;99.90;;;;;;12455796;28;20072;-81
2022/03/23 15:21:48;;;;;;;20.52;14.43;;;17.70;99.90;;;;;;12448019;28;20081;-84
2022/03/23 15:27:49;;;;;;;24.52;14.85;;;17.70;99.90;;;;;;12439312;28;20072;-82
2022/03/23 15:33:56;;;;;;;20.88;15.85;;;17.90;99.90;;;;;;12436590;28;20046;-84
2022/03/23 15:39:57;;;;;;;19.40;15.27;;;17.70;99.90;;;;;;12438296;28;20140;-81
2022/03/23 15:45:59;;;;;;;22.33;15.00;;;17.70;99.90;;;;;;12433119;28;20047;-82
2022/03/23 15:52:01;;;;;;;18.23;14.15;;;17.80;99.90;;;;;;12431045;28;20045;-84
2022/03/23 15:58:03;;;;;;;19.77;14.07;;;17.60;99.90;;;;;;12434457;28;20165;-82
2022/03/23 16:04:05;;;;;;;28.63;15.45;;;17.60;99.90;;;;;;12429227;28;20049;-81
2022/03/23 16:10:07;;;;;;;18.10;14.55;;;17.60;99.90;;;;;;12433983;28;20136;-84
2022/03/23 16:16:10;;;;;;;24.20;15.35;;;17.50;99.90;;;;;;12423953;28;20054;-82
2022/03/23 16:22:12;;;;;;;26.02;15.63;;;17.50;99.90;;;;;;12430960;28;20075;-84
2022/03/23 16:28:14;;;;;;;19.60;14.40;;;17.40;99.90;;;;;;12432044;28;20085;-84
2022/03/23 16:34:15;;;;;;;22.52;14.15;;;17.20;99.90;;;;;;12433692;28;20068;-84
2022/03/23 16:40:19;;;;;;;16.92;13.02;;;16.90;99.90;;;;;;12427327;28;20050;-81
2022/03/23 16:46:21;;;;;;;18.83;13.50;;;16.50;99.90;;;;;;12426285;28;20103;-82
2022/03/23 16:52:23;;;;;;;19.40;14.20;;;16.20;99.90;;;;;;12442960;28;20072;-81
2022/03/23 16:58:24;;;;;;;21.05;13.55;;;16.00;99.90;;;;;;12428837;28;20127;-84
2022/03/23 17:17:25;;;;;;;17.80;12.32;;;15.00;99.90;;;;;;12413336;28;20683;-84
2022/03/23 17:23:26;;;;;;;17.07;12.47;;;14.60;99.90;;;;;;12380564;28;21150;-81
2022/03/23 17:29:29;;;;;;;17.42;12.25;;;14.20;99.90;;;;;;12385752;28;20042;-83
2022/03/23 17:35:31;;;;;;;20.98;12.70;;;14.00;99.90;;;;;;12420865;28;20062;-83
2022/03/23 17:41:35;;;;;;;18.40;12.23;;;13.70;99.90;;;;;;12426918;28;20061;-84
2022/03/23 17:47:39;;;;;;;20.52;12.57;;;13.40;99.90;;;;;;12422365;28;20058;-83
2022/03/23 17:53:41;;;;;;;18.42;13.00;;;13.30;99.90;;;;;;12425434;28;20045;-83
2022/03/23 17:59:44;;;;;;;23.52;12.88;;;13.20;99.90;;;;;;12430351;28;20046;-83
2022/03/23 18:05:46;;;;;;;22.45;12.27;;;13.00;99.90;;;;;;12438643;28;20511;-83
2022/03/23 18:11:48;;;;;;;20.63;12.82;;;12.80;99.90;;;;;;12467202;28;20108;-83
2022/03/23 18:17:50;;;;;;;20.38;12.98;;;12.60;99.90;;;;;;12431741;28;20440;-80
2022/03/23 18:23:52;;;;;;;20.52;13.40;;;12.40;99.90;;;;;;12422252;28;20132;-83
2022/03/23 18:29:54;;;;;;;21.45;14.20;;;12.30;99.90;;;;;;12422190;28;20124;-80
2022/03/23 18:35:56;;;;;;;21.95;14.25;;;12.20;99.90;;;;;;12424363;28;20502;-80
2022/03/23 18:41:58;;;;;;;22.77;14.48;;;12.00;99.90;;;;;;12430225;28;20059;-81
2022/03/23 18:48:00;;;;;;;20.52;14.07;;;11.70;99.90;;;;;;12432163;28;20065;-80
2022/03/23 18:54:04;;;;;;;22.55;15.02;;;11.50;99.90;;;;;;12435049;28;20214;-82
2022/03/23 19:00:08;;;;;;;21.50;14.95;;;11.40;99.90;;;;;;12431012;28;20493;-82
2022/03/23 19:06:11;;;;;;;25.30;15.70;;;11.00;99.90;;;;;;12431253;28;20460;-81
2022/03/23 19:12:13;;;;;;;23.35;14.80;;;10.80;99.90;;;;;;12429182;28;20052;-82
2022/03/23 19:18:15;;;;;;;20.08;14.18;;;10.70;99.90;;;;;;12432127;28;20144;-80
2022/03/23 19:24:17;;;;;;;24.27;14.25;;;10.50;99.90;;;;;;12433735;28;20152;-82
2022/03/23 19:30:19;;;;;;;24.88;14.48;;;10.30;99.90;;;;;;12431717;28;20053;-82
2022/03/23 19:36:21;;;;;;;20.63;14.35;;;10.30;99.90;;;;;;12428732;28;20050;-82
2022/03/23 19:42:23;;;;;;;18.60;13.93;;;10.20;99.90;;;;;;12429647;28;21047;-82
2022/03/23 19:48:25;;;;;;;20.80;13.38;;;10.00;99.90;;;;;;12460894;28;20497;-81
2022/03/23 19:54:28;;;;;;;22.23;13.35;;;10.00;99.90;;;;;;12435037;28;20085;-82
2022/03/23 20:00:31;;;;;;;20.98;12.85;;;10.10;99.90;;;;;;12428298;28;20107;-82
2022/03/23 20:06:33;;;;;;;21.83;13.07;;;10.10;99.90;;;;;;12428976;28;20517;-82
2022/03/23 20:12:35;;;;;;;21.90;14.13;;;10.00;99.90;;;;;;12441422;28;20044;-82
2022/03/23 20:18:38;;;;;;;20.50;12.63;;;10.00;99.90;;;;;;12435146;28;20152;-82
2022/03/23 20:24:40;;;;;;;20.70;13.77;;;9.90;99.90;;;;;;12423245;28;20133;-80
2022/03/23 20:30:43;;;;;;;20.85;13.73;;;9.80;99.90;;;;;;12433148;28;20059;-80
2022/03/23 20:36:45;;;;;;;21.23;13.27;;;9.60;99.90;;;;;;12427110;28;20049;-81
2022/03/23 20:42:47;;;;;;;18.33;12.23;;;9.50;99.90;;;;;;12429311;28;20570;-82
2022/03/23 20:48:49;;;;;;;20.02;12.32;;;9.50;99.90;;;;;;12424068;28;20053;-82
2022/03/23 20:54:51;;;;;;;22.30;13.25;;;9.50;99.90;;;;;;12425382;28;20081;-82
2022/03/23 21:00:55;;;;;;;21.05;13.50;;;9.30;99.90;;;;;;12426258;28;20060;-80
2022/03/23 21:07:00;;;;;;;20.65;12.73;;;9.30;99.90;;;;;;12425667;28;20137;-82
2022/03/23 21:13:08;;;;;;;22.50;13.85;;;9.40;99.90;;;;;;12431822;28;20171;-81
2022/03/23 21:19:10;;;;;;;20.65;14.63;;;9.20;99.90;;;;;;12423368;28;20137;-80
2022/03/23 21:25:13;;;;;;;23.25;14.20;;;9.20;99.90;;;;;;12432405;28;20046;-81
2022/03/23 21:31:14;;;;;;;20.75;14.15;;;9.30;99.90;;;;;;12421093;28;20045;-81
2022/03/23 21:37:16;;;;;;;20.30;13.57;;;9.20;99.90;;;;;;12431666;28;20395;-80
2022/03/23 21:43:19;;;;;;;22.90;14.80;;;9.00;99.90;;;;;;12420154;28;20061;-81
2022/03/23 21:49:21;;;;;;;24.17;15.50;;;8.90;99.90;;;;;;12433727;28;20057;-81
2022/03/23 21:55:23;;;;;;;20.98;14.15;;;8.70;99.90;;;;;;12416796;28;20046;-80
2022/03/23 22:01:25;;;;;;;24.10;14.82;;;8.40;99.90;;;;;;12420883;28;20050;-80
2022/03/23 22:07:27;;;;;;;26.02;16.10;;;8.50;99.90;;;;;;12419696;28;20066;-81
2022/03/23 22:13:29;;;;;;;23.42;15.88;;;8.30;99.90;;;;;;12418529;28;20790;-81
2022/03/23 22:19:31;;;;;;;26.83;15.43;;;8.40;99.90;;;;;;12430481;28;20046;-80
2022/03/23 22:25:33;;;;;;;21.88;14.52;;;8.40;99.90;;;;;;12431070;28;20049;-80
2022/03/23 22:31:35;;;;;;;25.30;15.00;;;8.30;99.90;;;;;;12434914;28;20056;-79
2022/03/23 22:37:38;;;;;;;27.48;16.48;;;8.30;99.90;;;;;;12434565;28;20062;-81
2022/03/23 22:43:40;;;;;;;32.10;17.67;;;8.30;99.90;;;;;;12427000;28;20057;-80
2022/03/23 22:49:42;;;;;;;26.55;16.17;;;8.10;99.90;;;;;;12430376;28;20053;-81
2022/03/23 22:55:47;;;;;;;28.38;17.70;;;7.90;99.90;;;;;;12428601;28;20132;-79
2022/03/23 23:01:49;;;;;;;26.17;16.75;;;8.00;99.90;;;;;;12430694;28;20105;-81
2022/03/23 23:07:50;;;;;;;30.30;16.67;;;7.90;99.90;;;;;;12453117;28;20072;-82
2022/03/23 23:13:52;;;;;;;28.92;16.30;;;8.10;99.90;;;;;;12450632;28;20049;-80
2022/03/23 23:19:55;;;;;;;25.17;15.82;;;8.20;99.90;;;;;;12431055;28;20064;-81
2022/03/23 23:25:57;;;;;;;24.85;16.52;;;8.30;99.90;;;;;;12426201;28;20050;-81
2022/03/23 23:31:59;;;;;;;26.40;15.57;;;8.40;99.90;;;;;;12426904;28;20064;-81
2022/03/23 23:38:01;;;;;;;28.45;16.60;;;8.30;99.90;;;;;;12428604;28;20049;-81
2022/03/23 23:44:03;;;;;;;26.02;16.33;;;8.30;99.90;;;;;;12431000;28;20553;-82
2022/03/23 23:50:06;;;;;;;25.85;16.55;;;8.00;99.90;;;;;;12427294;28;20060;-79
2022/03/23 23:56:09;;;;;;;25.88;14.90;;;7.90;99.90;;;;;;12427834;28;20491;-81
